Aviation Digital Data Service (ADDS)

Output produced by TAFs form (1423 UTC 16 July 2018)
found at http://www.aviationweather.gov/adds/tafs/
 
METAR text: WADD 161400Z 11006KT 9999 FEW017 25/22 Q1012 NOSIG
Conditions at: WADD (BALI INTL , ID) observed 1400 UTC 16 July 2018
Temperature: 25.0°C (77°F)
Dewpoint: 22.0°C (72°F) [RH = 83%]
Pressure (altimeter): 29.88 inches Hg (1012.0 mb)
Winds: from the ESE (110 degrees) at 7 MPH (6 knots; 3.1 m/s)
Visibility: 6 or more miles (10+ km)
Ceiling: at least 12,000 feet AGL
Clouds: few clouds at 1700 feet AGL
Weather: no significant weather observed at this time

Forecast for: WADD (BALI INTL , ID)
Text: TAF WADD 161100Z 1612/1712 11011KT 9999 SCT017
Forecast period: 1200 UTC 16 July 2018 to 1200 UTC 17 July 2018
Forecast type: FROM: standard forecast or significant change
Winds: from the ESE (110 degrees) at 13 MPH (11 knots; 5.7 m/s)
Visibility: 6 or more miles (10+ km)
Clouds: scattered clouds at 1700 feet AGL
Weather: no significant weather forecast for this period